sensor_id;sensor_type;location;lat;lon;timestamp;temperature;humidity
29281;DHT22;25048;49.590;11.026;2022-07-06T00:02:21;17.20;85.50
29281;DHT22;25048;49.590;11.026;2022-07-06T00:04:48;17.20;85.20
29281;DHT22;25048;49.590;11.026;2022-07-06T00:07:16;17.20;85.60
29281;DHT22;25048;49.590;11.026;2022-07-06T00:09:43;17.20;86.00
29281;DHT22;25048;49.590;11.026;2022-07-06T00:12:11;17.20;86.30
29281;DHT22;25048;49.590;11.026;2022-07-06T00:14:38;17.20;86.90
29281;DHT22;25048;49.590;11.026;2022-07-06T00:17:06;17.20;86.40
29281;DHT22;25048;49.590;11.026;2022-07-06T00:19:33;17.20;86.40
29281;DHT22;25048;49.590;11.026;2022-07-06T00:22:01;17.10;86.70
29281;DHT22;25048;49.590;11.026;2022-07-06T00:24:28;17.20;86.90
29281;DHT22;25048;49.590;11.026;2022-07-06T00:26:56;17.10;87.40
29281;DHT22;25048;49.590;11.026;2022-07-06T00:29:23;17.10;88.20
29281;DHT22;25048;49.590;11.026;2022-07-06T00:31:51;17.10;88.20
29281;DHT22;25048;49.590;11.026;2022-07-06T00:34:18;17.00;88.90
29281;DHT22;25048;49.590;11.026;2022-07-06T00:36:46;17.00;90.00
29281;DHT22;25048;49.590;11.026;2022-07-06T00:39:13;16.90;90.60
29281;DHT22;25048;49.590;11.026;2022-07-06T00:41:40;16.90;90.50
29281;DHT22;25048;49.590;11.026;2022-07-06T00:44:08;16.80;90.30
29281;DHT22;25048;49.590;11.026;2022-07-06T00:46:36;16.80;90.60
29281;DHT22;25048;49.590;11.026;2022-07-06T00:49:04;16.70;90.70
29281;DHT22;25048;49.590;11.026;2022-07-06T00:51:34;16.80;90.60
29281;DHT22;25048;49.590;11.026;2022-07-06T00:54:04;16.80;90.50
29281;DHT22;25048;49.590;11.026;2022-07-06T00:56:32;16.70;90.70
29281;DHT22;25048;49.590;11.026;2022-07-06T00:59:03;16.80;90.90
29281;DHT22;25048;49.590;11.026;2022-07-06T01:01:30;16.80;91.10
29281;DHT22;25048;49.590;11.026;2022-07-06T01:03:58;16.80;91.20
29281;DHT22;25048;49.590;11.026;2022-07-06T01:06:25;16.80;91.10
29281;DHT22;25048;49.590;11.026;2022-07-06T01:08:53;16.70;91.00
29281;DHT22;25048;49.590;11.026;2022-07-06T01:11:21;16.80;91.00
29281;DHT22;25048;49.590;11.026;2022-07-06T01:13:50;16.80;91.00
29281;DHT22;25048;49.590;11.026;2022-07-06T01:16:18;16.80;91.30
29281;DHT22;25048;49.590;11.026;2022-07-06T01:18:45;16.70;91.50
29281;DHT22;25048;49.590;11.026;2022-07-06T01:21:15;16.70;91.50
29281;DHT22;25048;49.590;11.026;2022-07-06T01:23:43;16.80;91.50
29281;DHT22;25048;49.590;11.026;2022-07-06T01:26:17;16.70;91.70
29281;DHT22;25048;49.590;11.026;2022-07-06T01:28:46;16.70;91.90
29281;DHT22;25048;49.590;11.026;2022-07-06T01:31:15;16.70;92.20
29281;DHT22;25048;49.590;11.026;2022-07-06T01:33:43;16.60;92.20
29281;DHT22;25048;49.590;11.026;2022-07-06T01:36:11;16.60;92.50
29281;DHT22;25048;49.590;11.026;2022-07-06T01:38:50;16.60;92.40
29281;DHT22;25048;49.590;11.026;2022-07-06T01:41:18;16.60;92.70
29281;DHT22;25048;49.590;11.026;2022-07-06T01:43:47;16.50;92.80
29281;DHT22;25048;49.590;11.026;2022-07-06T01:46:14;16.50;93.20
29281;DHT22;25048;49.590;11.026;2022-07-06T01:48:44;16.40;93.20
29281;DHT22;25048;49.590;11.026;2022-07-06T01:51:11;16.40;93.50
29281;DHT22;25048;49.590;11.026;2022-07-06T01:53:39;16.40;93.60
29281;DHT22;25048;49.590;11.026;2022-07-06T01:56:07;16.30;94.30
29281;DHT22;25048;49.590;11.026;2022-07-06T01:58:35;16.20;94.30
29281;DHT22;25048;49.590;11.026;2022-07-06T02:01:11;16.20;94.80
29281;DHT22;25048;49.590;11.026;2022-07-06T02:03:39;16.10;95.30
29281;DHT22;25048;49.590;11.026;2022-07-06T02:06:07;16.10;96.30
29281;DHT22;25048;49.590;11.026;2022-07-06T02:08:35;16.00;96.30
29281;DHT22;25048;49.590;11.026;2022-07-06T02:11:04;16.00;96.10
29281;DHT22;25048;49.590;11.026;2022-07-06T02:13:32;16.00;96.10
29281;DHT22;25048;49.590;11.026;2022-07-06T02:16:00;15.90;96.70
29281;DHT22;25048;49.590;11.026;2022-07-06T02:18:28;15.90;96.50
29281;DHT22;25048;49.590;11.026;2022-07-06T02:20:55;15.90;96.60
29281;DHT22;25048;49.590;11.026;2022-07-06T02:23:23;15.90;96.80
29281;DHT22;25048;49.590;11.026;2022-07-06T02:25:50;15.90;96.80
29281;DHT22;25048;49.590;11.026;2022-07-06T02:28:18;15.90;97.80
29281;DHT22;25048;49.590;11.026;2022-07-06T02:30:45;15.90;98.20
29281;DHT22;25048;49.590;11.026;2022-07-06T02:33:13;15.80;99.20
29281;DHT22;25048;49.590;11.026;2022-07-06T02:35:40;15.70;99.90
29281;DHT22;25048;49.590;11.026;2022-07-06T02:38:09;15.50;99.90
29281;DHT22;25048;49.590;11.026;2022-07-06T02:40:37;15.30;99.90
29281;DHT22;25048;49.590;11.026;2022-07-06T02:43:05;15.20;99.90
29281;DHT22;25048;49.590;11.026;2022-07-06T02:45:33;15.00;99.90
29281;DHT22;25048;49.590;11.026;2022-07-06T02:48:00;14.80;99.90
29281;DHT22;25048;49.590;11.026;2022-07-06T02:50:28;14.70;99.90
29281;DHT22;25048;49.590;11.026;2022-07-06T02:52:56;14.50;99.90
29281;DHT22;25048;49.590;11.026;2022-07-06T02:55:25;14.40;99.90
29281;DHT22;25048;49.590;11.026;2022-07-06T02:57:52;14.30;99.90
29281;DHT22;25048;49.590;11.026;2022-07-06T03:00:20;14.30;99.90
29281;DHT22;25048;49.590;11.026;2022-07-06T03:02:47;14.20;99.90
29281;DHT22;25048;49.590;11.026;2022-07-06T03:05:15;14.20;99.90
29281;DHT22;25048;49.590;11.026;2022-07-06T03:07:42;14.10;99.90
29281;DHT22;25048;49.590;11.026;2022-07-06T03:10:10;14.10;99.90
29281;DHT22;25048;49.590;11.026;2022-07-06T03:12:37;14.00;99.90
29281;DHT22;25048;49.590;11.026;2022-07-06T03:15:05;14.10;99.90
29281;DHT22;25048;49.590;11.026;2022-07-06T03:17:32;14.00;99.90
29281;DHT22;25048;49.590;11.026;2022-07-06T03:20:00;14.00;99.90
29281;DHT22;25048;49.590;11.026;2022-07-06T03:22:27;14.00;99.90
29281;DHT22;25048;49.590;11.026;2022-07-06T03:24:55;14.00;99.90
29281;DHT22;25048;49.590;11.026;2022-07-06T03:27:23;14.00;99.90
29281;DHT22;25048;49.590;11.026;2022-07-06T03:29:51;14.00;99.90
29281;DHT22;25048;49.590;11.026;2022-07-06T03:32:18;13.90;99.90
29281;DHT22;25048;49.590;11.026;2022-07-06T03:34:45;14.00;99.90
29281;DHT22;25048;49.590;11.026;2022-07-06T03:37:13;14.00;99.90
29281;DHT22;25048;49.590;11.026;2022-07-06T03:39:40;14.00;99.90
29281;DHT22;25048;49.590;11.026;2022-07-06T03:42:08;14.00;99.90
29281;DHT22;25048;49.590;11.026;2022-07-06T03:44:35;14.00;99.90
29281;DHT22;25048;49.590;11.026;2022-07-06T03:47:03;14.00;99.90
29281;DHT22;25048;49.590;11.026;2022-07-06T03:49:31;14.00;99.90
29281;DHT22;25048;49.590;11.026;2022-07-06T03:51:58;13.90;99.90
29281;DHT22;25048;49.590;11.026;2022-07-06T03:54:26;13.90;99.90
29281;DHT22;25048;49.590;11.026;2022-07-06T03:56:53;13.80;99.90
29281;DHT22;25048;49.590;11.026;2022-07-06T03:59:21;13.80;99.90
29281;DHT22;25048;49.590;11.026;2022-07-06T04:01:48;13.80;99.90
29281;DHT22;25048;49.590;11.026;2022-07-06T04:04:16;13.80;99.90
29281;DHT22;25048;49.590;11.026;2022-07-06T04:06:43;13.80;99.90
29281;DHT22;25048;49.590;11.026;2022-07-06T04:09:10;13.80;99.90
29281;DHT22;25048;49.590;11.026;2022-07-06T04:11:38;13.70;99.90
29281;DHT22;25048;49.590;11.026;2022-07-06T04:14:06;13.80;99.90
29281;DHT22;25048;49.590;11.026;2022-07-06T04:16:33;13.80;99.90
29281;DHT22;25048;49.590;11.026;2022-07-06T04:19:01;13.80;99.90
29281;DHT22;25048;49.590;11.026;2022-07-06T04:21:28;13.80;99.90
29281;DHT22;25048;49.590;11.026;2022-07-06T04:23:56;13.90;99.90
29281;DHT22;25048;49.590;11.026;2022-07-06T04:26:23;14.00;99.90
29281;DHT22;25048;49.590;11.026;2022-07-06T04:28:51;14.00;99.90
29281;DHT22;25048;49.590;11.026;2022-07-06T04:31:18;14.10;99.90
29281;DHT22;25048;49.590;11.026;2022-07-06T04:33:46;14.20;99.90
29281;DHT22;25048;49.590;11.026;2022-07-06T04:36:13;14.20;99.90
29281;DHT22;25048;49.590;11.026;2022-07-06T04:38:41;14.30;99.90
29281;DHT22;25048;49.590;11.026;2022-07-06T04:41:08;14.40;99.90
29281;DHT22;25048;49.590;11.026;2022-07-06T04:43:36;14.50;99.90
29281;DHT22;25048;49.590;11.026;2022-07-06T04:46:03;14.70;99.90
29281;DHT22;25048;49.590;11.026;2022-07-06T04:48:31;14.90;99.90
29281;DHT22;25048;49.590;11.026;2022-07-06T04:51:01;15.00;99.90
29281;DHT22;25048;49.590;11.026;2022-07-06T04:53:28;15.10;99.90
29281;DHT22;25048;49.590;11.026;2022-07-06T04:55:57;15.30;99.90
29281;DHT22;25048;49.590;11.026;2022-07-06T04:58:25;15.40;99.90
29281;DHT22;25048;49.590;11.026;2022-07-06T05:00:53;15.60;99.90
29281;DHT22;25048;49.590;11.026;2022-07-06T05:03:20;15.70;99.90
29281;DHT22;25048;49.590;11.026;2022-07-06T05:05:47;15.80;99.90
29281;DHT22;25048;49.590;11.026;2022-07-06T05:08:15;15.90;99.90
29281;DHT22;25048;49.590;11.026;2022-07-06T05:10:42;16.00;99.90
29281;DHT22;25048;49.590;11.026;2022-07-06T05:13:10;16.10;99.90
29281;DHT22;25048;49.590;11.026;2022-07-06T05:15:37;16.20;99.90
29281;DHT22;25048;49.590;11.026;2022-07-06T05:18:05;16.30;99.90
29281;DHT22;25048;49.590;11.026;2022-07-06T05:20:32;16.60;99.90
29281;DHT22;25048;49.590;11.026;2022-07-06T05:23:00;16.80;99.90
29281;DHT22;25048;49.590;11.026;2022-07-06T05:25:27;17.20;99.90
29281;DHT22;25048;49.590;11.026;2022-07-06T05:27:55;17.60;99.90
29281;DHT22;25048;49.590;11.026;2022-07-06T05:30:23;18.10;99.90
29281;DHT22;25048;49.590;11.026;2022-07-06T05:32:50;18.40;99.90
29281;DHT22;25048;49.590;11.026;2022-07-06T05:35:18;18.70;99.90
29281;DHT22;25048;49.590;11.026;2022-07-06T05:37:45;18.70;99.90
29281;DHT22;25048;49.590;11.026;2022-07-06T05:40:13;18.60;99.90
29281;DHT22;25048;49.590;11.026;2022-07-06T05:42:40;18.60;99.90
29281;DHT22;25048;49.590;11.026;2022-07-06T05:45:08;18.70;99.90
29281;DHT22;25048;49.590;11.026;2022-07-06T05:47:35;18.80;99.90
29281;DHT22;25048;49.590;11.026;2022-07-06T05:50:21;19.00;99.90
29281;DHT22;25048;49.590;11.026;2022-07-06T05:53:03;19.30;99.90
29281;DHT22;25048;49.590;11.026;2022-07-06T05:55:32;19.60;99.90
29281;DHT22;25048;49.590;11.026;2022-07-06T05:58:00;19.80;99.90
29281;DHT22;25048;49.590;11.026;2022-07-06T06:00:28;20.00;99.90
29281;DHT22;25048;49.590;11.026;2022-07-06T06:02:55;20.20;99.90
29281;DHT22;25048;49.590;11.026;2022-07-06T06:05:23;20.50;99.90
29281;DHT22;25048;49.590;11.026;2022-07-06T06:07:50;20.70;99.90
29281;DHT22;25048;49.590;11.026;2022-07-06T06:10:20;21.00;99.90
29281;DHT22;25048;49.590;11.026;2022-07-06T06:12:51;21.10;99.90
29281;DHT22;25048;49.590;11.026;2022-07-06T06:15:19;21.30;99.90
29281;DHT22;25048;49.590;11.026;2022-07-06T06:17:47;21.30;99.90
29281;DHT22;25048;49.590;11.026;2022-07-06T06:20:15;21.30;99.90
29281;DHT22;25048;49.590;11.026;2022-07-06T06:22:53;21.40;99.90
29281;DHT22;25048;49.590;11.026;2022-07-06T06:25:41;21.50;99.90
29281;DHT22;25048;49.590;11.026;2022-07-06T06:28:10;21.60;99.90
29281;DHT22;25048;49.590;11.026;2022-07-06T06:30:38;21.60;99.90
29281;DHT22;25048;49.590;11.026;2022-07-06T06:33:11;21.50;99.90
29281;DHT22;25048;49.590;11.026;2022-07-06T06:35:47;21.50;99.90
29281;DHT22;25048;49.590;11.026;2022-07-06T06:38:16;21.60;99.90
29281;DHT22;25048;49.590;11.026;2022-07-06T06:40:43;21.60;99.90
29281;DHT22;25048;49.590;11.026;2022-07-06T06:43:11;21.70;99.70
29281;DHT22;25048;49.590;11.026;2022-07-06T06:45:39;21.70;99.80
29281;DHT22;25048;49.590;11.026;2022-07-06T06:48:07;21.90;99.90
29281;DHT22;25048;49.590;11.026;2022-07-06T06:50:34;22.10;99.90
29281;DHT22;25048;49.590;11.026;2022-07-06T06:53:03;22.20;99.00
29281;DHT22;25048;49.590;11.026;2022-07-06T06:55:30;22.20;99.70
29281;DHT22;25048;49.590;11.026;2022-07-06T06:57:58;22.30;99.70
29281;DHT22;25048;49.590;11.026;2022-07-06T07:00:25;22.30;98.40
29281;DHT22;25048;49.590;11.026;2022-07-06T07:02:53;22.40;99.40
29281;DHT22;25048;49.590;11.026;2022-07-06T07:05:20;22.50;98.20
29281;DHT22;25048;49.590;11.026;2022-07-06T07:07:48;22.40;97.90
29281;DHT22;25048;49.590;11.026;2022-07-06T07:10:15;22.40;97.60
29281;DHT22;25048;49.590;11.026;2022-07-06T07:12:49;22.40;97.30
29281;DHT22;25048;49.590;11.026;2022-07-06T07:15:17;22.40;96.30
29281;DHT22;25048;49.590;11.026;2022-07-06T07:17:44;22.30;95.10
29281;DHT22;25048;49.590;11.026;2022-07-06T07:20:12;22.30;95.30
29281;DHT22;25048;49.590;11.026;2022-07-06T07:22:39;22.30;96.70
29281;DHT22;25048;49.590;11.026;2022-07-06T07:25:07;22.20;96.60
29281;DHT22;25048;49.590;11.026;2022-07-06T07:27:35;22.10;96.20
29281;DHT22;25048;49.590;11.026;2022-07-06T07:30:03;22.10;96.40
29281;DHT22;25048;49.590;11.026;2022-07-06T07:32:31;22.00;96.30
29281;DHT22;25048;49.590;11.026;2022-07-06T07:34:58;22.10;96.00
29281;DHT22;25048;49.590;11.026;2022-07-06T07:37:26;22.40;95.50
29281;DHT22;25048;49.590;11.026;2022-07-06T07:39:53;22.50;94.90
29281;DHT22;25048;49.590;11.026;2022-07-06T07:42:21;22.50;94.20
29281;DHT22;25048;49.590;11.026;2022-07-06T07:44:48;22.30;95.00
29281;DHT22;25048;49.590;11.026;2022-07-06T07:47:16;22.10;95.10
29281;DHT22;25048;49.590;11.026;2022-07-06T07:49:44;22.10;94.90
29281;DHT22;25048;49.590;11.026;2022-07-06T07:52:11;22.30;94.70
29281;DHT22;25048;49.590;11.026;2022-07-06T07:54:39;22.60;95.40
29281;DHT22;25048;49.590;11.026;2022-07-06T07:57:06;22.80;93.30
29281;DHT22;25048;49.590;11.026;2022-07-06T07:59:34;23.00;93.50
29281;DHT22;25048;49.590;11.026;2022-07-06T08:02:01;23.20;92.70
29281;DHT22;25048;49.590;11.026;2022-07-06T08:04:29;23.40;92.10
29281;DHT22;25048;49.590;11.026;2022-07-06T08:06:56;23.50;92.30
29281;DHT22;25048;49.590;11.026;2022-07-06T08:09:24;23.70;91.40
29281;DHT22;25048;49.590;11.026;2022-07-06T08:11:52;23.70;90.10
29281;DHT22;25048;49.590;11.026;2022-07-06T08:14:19;23.80;90.30
29281;DHT22;25048;49.590;11.026;2022-07-06T08:16:47;23.80;90.50
29281;DHT22;25048;49.590;11.026;2022-07-06T08:19:14;24.00;91.00
29281;DHT22;25048;49.590;11.026;2022-07-06T08:21:42;24.30;89.50
29281;DHT22;25048;49.590;11.026;2022-07-06T08:24:10;24.50;83.70
29281;DHT22;25048;49.590;11.026;2022-07-06T08:26:37;24.60;81.00
29281;DHT22;25048;49.590;11.026;2022-07-06T08:29:05;24.60;81.80
29281;DHT22;25048;49.590;11.026;2022-07-06T08:31:33;24.40;83.80
29281;DHT22;25048;49.590;11.026;2022-07-06T08:34:01;24.40;84.80
29281;DHT22;25048;49.590;11.026;2022-07-06T08:36:29;24.40;84.70
29281;DHT22;25048;49.590;11.026;2022-07-06T08:38:57;24.60;85.70
29281;DHT22;25048;49.590;11.026;2022-07-06T08:41:28;24.70;83.90
29281;DHT22;25048;49.590;11.026;2022-07-06T08:43:55;24.90;81.90
29281;DHT22;25048;49.590;11.026;2022-07-06T08:46:23;24.90;82.00
29281;DHT22;25048;49.590;11.026;2022-07-06T08:48:50;25.10;80.30
29281;DHT22;25048;49.590;11.026;2022-07-06T08:51:19;25.20;80.00
29281;DHT22;25048;49.590;11.026;2022-07-06T08:53:47;25.30;79.40
29281;DHT22;25048;49.590;11.026;2022-07-06T08:56:17;25.30;77.30
29281;DHT22;25048;49.590;11.026;2022-07-06T08:58:45;25.50;80.00
29281;DHT22;25048;49.590;11.026;2022-07-06T09:01:13;25.60;74.00
29281;DHT22;25048;49.590;11.026;2022-07-06T09:03:41;25.70;73.30
29281;DHT22;25048;49.590;11.026;2022-07-06T09:06:09;25.70;70.30
29281;DHT22;25048;49.590;11.026;2022-07-06T09:08:37;25.60;70.30
29281;DHT22;25048;49.590;11.026;2022-07-06T09:11:04;25.60;70.70
29281;DHT22;25048;49.590;11.026;2022-07-06T09:13:32;25.60;73.20
29281;DHT22;25048;49.590;11.026;2022-07-06T09:16:10;25.70;73.10
29281;DHT22;25048;49.590;11.026;2022-07-06T09:18:39;25.80;71.70
29281;DHT22;25048;49.590;11.026;2022-07-06T09:21:08;25.90;70.90
29281;DHT22;25048;49.590;11.026;2022-07-06T09:23:37;26.00;71.80
29281;DHT22;25048;49.590;11.026;2022-07-06T09:26:08;26.10;70.20
29281;DHT22;25048;49.590;11.026;2022-07-06T09:28:43;26.30;70.60
29281;DHT22;25048;49.590;11.026;2022-07-06T09:31:12;26.40;68.70
29281;DHT22;25048;49.590;11.026;2022-07-06T09:33:41;26.40;67.90
29281;DHT22;25048;49.590;11.026;2022-07-06T09:36:08;26.50;66.70
29281;DHT22;25048;49.590;11.026;2022-07-06T09:38:36;26.50;66.50
29281;DHT22;25048;49.590;11.026;2022-07-06T09:41:03;26.60;70.30
29281;DHT22;25048;49.590;11.026;2022-07-06T09:43:32;26.80;66.80
29281;DHT22;25048;49.590;11.026;2022-07-06T09:46:00;27.10;68.80
29281;DHT22;25048;49.590;11.026;2022-07-06T09:48:28;27.30;65.40
29281;DHT22;25048;49.590;11.026;2022-07-06T09:50:57;27.50;64.10
29281;DHT22;25048;49.590;11.026;2022-07-06T09:53:27;27.50;64.70
29281;DHT22;25048;49.590;11.026;2022-07-06T09:55:56;27.60;64.00
29281;DHT22;25048;49.590;11.026;2022-07-06T09:58:25;27.70;62.50
29281;DHT22;25048;49.590;11.026;2022-07-06T10:00:53;27.80;63.70
29281;DHT22;25048;49.590;11.026;2022-07-06T10:03:20;28.10;66.00
29281;DHT22;25048;49.590;11.026;2022-07-06T10:05:49;28.30;65.30
29281;DHT22;25048;49.590;11.026;2022-07-06T10:08:17;28.20;61.60
29281;DHT22;25048;49.590;11.026;2022-07-06T10:10:45;27.90;61.30
29281;DHT22;25048;49.590;11.026;2022-07-06T10:13:14;27.60;63.30
29281;DHT22;25048;49.590;11.026;2022-07-06T10:15:43;27.50;62.60
29281;DHT22;25048;49.590;11.026;2022-07-06T10:18:11;27.30;64.10
29281;DHT22;25048;49.590;11.026;2022-07-06T10:20:39;26.80;63.50
29281;DHT22;25048;49.590;11.026;2022-07-06T10:23:08;26.40;65.90
29281;DHT22;25048;49.590;11.026;2022-07-06T10:25:36;26.10;64.40
29281;DHT22;25048;49.590;11.026;2022-07-06T10:28:05;26.00;66.80
29281;DHT22;25048;49.590;11.026;2022-07-06T10:30:34;26.10;65.50
29281;DHT22;25048;49.590;11.026;2022-07-06T10:33:02;26.50;64.80
29281;DHT22;25048;49.590;11.026;2022-07-06T10:35:30;26.70;64.00
29281;DHT22;25048;49.590;11.026;2022-07-06T10:38:06;26.90;64.90
29281;DHT22;25048;49.590;11.026;2022-07-06T10:40:35;27.20;62.30
29281;DHT22;25048;49.590;11.026;2022-07-06T10:43:20;27.30;62.00
29281;DHT22;25048;49.590;11.026;2022-07-06T10:45:50;27.40;62.60
29281;DHT22;25048;49.590;11.026;2022-07-06T10:48:19;27.40;62.70
29281;DHT22;25048;49.590;11.026;2022-07-06T10:50:49;27.00;61.10
29281;DHT22;25048;49.590;11.026;2022-07-06T10:53:25;26.70;63.80
29281;DHT22;25048;49.590;11.026;2022-07-06T10:55:55;26.60;63.90
29281;DHT22;25048;49.590;11.026;2022-07-06T10:58:40;26.60;62.90
29281;DHT22;25048;49.590;11.026;2022-07-06T11:01:09;26.40;64.40
29281;DHT22;25048;49.590;11.026;2022-07-06T11:03:43;26.30;64.40
29281;DHT22;25048;49.590;11.026;2022-07-06T11:06:19;26.20;66.20
29281;DHT22;25048;49.590;11.026;2022-07-06T11:13:55;26.60;61.90
29281;DHT22;25048;49.590;11.026;2022-07-06T11:16:25;26.30;62.10
29281;DHT22;25048;49.590;11.026;2022-07-06T11:19:10;26.00;64.20
29281;DHT22;25048;49.590;11.026;2022-07-06T11:24:31;25.90;63.80
29281;DHT22;25048;49.590;11.026;2022-07-06T11:26:59;25.90;63.20
29281;DHT22;25048;49.590;11.026;2022-07-06T11:29:29;26.20;61.80
29281;DHT22;25048;49.590;11.026;2022-07-06T11:31:58;26.80;63.50
29281;DHT22;25048;49.590;11.026;2022-07-06T11:34:37;26.90;61.60
29281;DHT22;25048;49.590;11.026;2022-07-06T11:37:03;26.60;63.40
29281;DHT22;25048;49.590;11.026;2022-07-06T11:39:32;26.40;61.90
29281;DHT22;25048;49.590;11.026;2022-07-06T11:42:00;26.00;62.20
29281;DHT22;25048;49.590;11.026;2022-07-06T11:44:30;25.70;63.80
29281;DHT22;25048;49.590;11.026;2022-07-06T11:46:58;25.60;62.70
29281;DHT22;25048;49.590;11.026;2022-07-06T11:49:28;25.60;63.60
29281;DHT22;25048;49.590;11.026;2022-07-06T11:51:56;26.10;63.50
29281;DHT22;25048;49.590;11.026;2022-07-06T11:54:25;26.70;64.70
29281;DHT22;25048;49.590;11.026;2022-07-06T11:56:55;27.10;64.40
29281;DHT22;25048;49.590;11.026;2022-07-06T11:59:26;27.10;62.50
29281;DHT22;25048;49.590;11.026;2022-07-06T12:02:11;27.10;61.60
29281;DHT22;25048;49.590;11.026;2022-07-06T12:04:44;26.80;58.50
29281;DHT22;25048;49.590;11.026;2022-07-06T12:07:13;26.70;59.00
29281;DHT22;25048;49.590;11.026;2022-07-06T12:09:44;27.20;58.60
29281;DHT22;25048;49.590;11.026;2022-07-06T12:12:12;27.70;61.20
29281;DHT22;25048;49.590;11.026;2022-07-06T12:14:41;28.30;56.60
29281;DHT22;25048;49.590;11.026;2022-07-06T12:17:13;28.80;54.10
29281;DHT22;25048;49.590;11.026;2022-07-06T12:19:42;28.90;55.60
29281;DHT22;25048;49.590;11.026;2022-07-06T12:22:10;28.40;54.60
29281;DHT22;25048;49.590;11.026;2022-07-06T12:24:43;27.80;55.40
29281;DHT22;25048;49.590;11.026;2022-07-06T12:27:13;27.30;56.50
29281;DHT22;25048;49.590;11.026;2022-07-06T12:29:41;26.90;57.70
29281;DHT22;25048;49.590;11.026;2022-07-06T12:32:18;26.70;56.70
29281;DHT22;25048;49.590;11.026;2022-07-06T12:34:46;26.90;56.90
29281;DHT22;25048;49.590;11.026;2022-07-06T12:37:14;26.80;55.90
29281;DHT22;25048;49.590;11.026;2022-07-06T12:39:47;26.70;56.10
29281;DHT22;25048;49.590;11.026;2022-07-06T12:42:17;27.10;57.40
29281;DHT22;25048;49.590;11.026;2022-07-06T12:44:48;27.70;56.90
29281;DHT22;25048;49.590;11.026;2022-07-06T12:47:21;28.30;55.80
29281;DHT22;25048;49.590;11.026;2022-07-06T12:50:04;28.80;56.60
29281;DHT22;25048;49.590;11.026;2022-07-06T12:52:32;29.30;53.40
29281;DHT22;25048;49.590;11.026;2022-07-06T12:55:00;29.60;51.50
29281;DHT22;25048;49.590;11.026;2022-07-06T12:57:42;29.70;50.90
29281;DHT22;25048;49.590;11.026;2022-07-06T13:00:00;29.80;50.40
29281;DHT22;25048;49.590;11.026;2022-07-06T13:02:30;29.50;51.40
29281;DHT22;25048;49.590;11.026;2022-07-06T13:05:06;29.60;51.00
29281;DHT22;25048;49.590;11.026;2022-07-06T13:07:36;29.60;50.70
29281;DHT22;25048;49.590;11.026;2022-07-06T13:10:06;29.90;51.60
29281;DHT22;25048;49.590;11.026;2022-07-06T13:12:35;30.30;51.10
29281;DHT22;25048;49.590;11.026;2022-07-06T13:15:04;30.40;49.80
29281;DHT22;25048;49.590;11.026;2022-07-06T13:17:33;30.50;49.90
29281;DHT22;25048;49.590;11.026;2022-07-06T13:20:00;30.60;50.00
29281;DHT22;25048;49.590;11.026;2022-07-06T13:22:29;30.70;50.50
29281;DHT22;25048;49.590;11.026;2022-07-06T13:24:56;30.90;50.00
29281;DHT22;25048;49.590;11.026;2022-07-06T13:27:24;31.20;48.80
29281;DHT22;25048;49.590;11.026;2022-07-06T13:29:52;31.50;47.90
29281;DHT22;25048;49.590;11.026;2022-07-06T13:32:19;31.50;47.60
29281;DHT22;25048;49.590;11.026;2022-07-06T13:34:48;31.00;47.50
29281;DHT22;25048;49.590;11.026;2022-07-06T13:37:16;30.60;48.10
29281;DHT22;25048;49.590;11.026;2022-07-06T13:39:45;30.70;48.70
29281;DHT22;25048;49.590;11.026;2022-07-06T13:42:12;30.80;47.50
29281;DHT22;25048;49.590;11.026;2022-07-06T13:44:40;30.60;47.50
29281;DHT22;25048;49.590;11.026;2022-07-06T13:47:07;29.90;48.00
29281;DHT22;25048;49.590;11.026;2022-07-06T13:49:35;29.00;49.70
29281;DHT22;25048;49.590;11.026;2022-07-06T13:52:02;29.00;49.20
29281;DHT22;25048;49.590;11.026;2022-07-06T13:54:31;29.40;49.60
29281;DHT22;25048;49.590;11.026;2022-07-06T13:57:01;29.90;48.80
29281;DHT22;25048;49.590;11.026;2022-07-06T13:59:27;30.20;49.00
29281;DHT22;25048;49.590;11.026;2022-07-06T14:01:55;30.10;47.60
29281;DHT22;25048;49.590;11.026;2022-07-06T14:04:22;29.50;47.90
29281;DHT22;25048;49.590;11.026;2022-07-06T14:06:50;29.30;49.70
29281;DHT22;25048;49.590;11.026;2022-07-06T14:09:17;28.70;50.90
29281;DHT22;25048;49.590;11.026;2022-07-06T14:11:45;28.30;50.10
29281;DHT22;25048;49.590;11.026;2022-07-06T14:14:13;28.10;49.40
29281;DHT22;25048;49.590;11.026;2022-07-06T14:16:40;27.60;52.50
29281;DHT22;25048;49.590;11.026;2022-07-06T14:19:08;27.80;53.30
29281;DHT22;25048;49.590;11.026;2022-07-06T14:21:36;28.50;50.30
29281;DHT22;25048;49.590;11.026;2022-07-06T14:24:03;29.40;49.70
29281;DHT22;25048;49.590;11.026;2022-07-06T14:26:31;29.60;51.10
29281;DHT22;25048;49.590;11.026;2022-07-06T14:28:59;29.50;51.30
29281;DHT22;25048;49.590;11.026;2022-07-06T14:31:27;30.00;50.30
29281;DHT22;25048;49.590;11.026;2022-07-06T14:33:54;31.00;48.90
29281;DHT22;25048;49.590;11.026;2022-07-06T14:36:22;31.80;46.60
29281;DHT22;25048;49.590;11.026;2022-07-06T14:38:49;32.40;45.80
29281;DHT22;25048;49.590;11.026;2022-07-06T14:41:17;33.00;45.20
29281;DHT22;25048;49.590;11.026;2022-07-06T14:43:44;33.70;43.50
29281;DHT22;25048;49.590;11.026;2022-07-06T14:46:12;33.70;43.40
29281;DHT22;25048;49.590;11.026;2022-07-06T14:48:39;33.50;45.10
29281;DHT22;25048;49.590;11.026;2022-07-06T14:51:07;33.10;44.70
29281;DHT22;25048;49.590;11.026;2022-07-06T14:53:34;33.60;43.30
29281;DHT22;25048;49.590;11.026;2022-07-06T14:56:02;33.10;42.00
29281;DHT22;25048;49.590;11.026;2022-07-06T14:58:29;32.90;41.70
29281;DHT22;25048;49.590;11.026;2022-07-06T15:00:57;33.00;41.20
29281;DHT22;25048;49.590;11.026;2022-07-06T15:03:25;33.70;42.70
29281;DHT22;25048;49.590;11.026;2022-07-06T15:05:53;34.40;42.90
29281;DHT22;25048;49.590;11.026;2022-07-06T15:08:21;35.00;38.80
29281;DHT22;25048;49.590;11.026;2022-07-06T15:10:48;35.20;37.70
29281;DHT22;25048;49.590;11.026;2022-07-06T15:13:16;34.20;37.70
29281;DHT22;25048;49.590;11.026;2022-07-06T15:15:44;33.80;36.30
29281;DHT22;25048;49.590;11.026;2022-07-06T15:18:11;33.70;38.30
29281;DHT22;25048;49.590;11.026;2022-07-06T15:20:39;34.00;37.50
29281;DHT22;25048;49.590;11.026;2022-07-06T15:23:06;34.10;36.20
29281;DHT22;25048;49.590;11.026;2022-07-06T15:25:34;33.90;37.30
29281;DHT22;25048;49.590;11.026;2022-07-06T15:28:03;33.80;36.90
29281;DHT22;25048;49.590;11.026;2022-07-06T15:30:30;33.70;37.00
29281;DHT22;25048;49.590;11.026;2022-07-06T15:33:00;33.60;36.70